Time;durP1;ratioP1;P1;durP2;ratioP2;P2;SDS_P1;SDS_P2;PMS_P1;PMS_P2;Temp;Humidity;BMP_temperature;BMP_pressure;BME280_temperature;BME280_humidity;BME280_pressure;Samples;Min_cycle;Max_cycle;Signal;HPM_P1;HPM_P2
2023/10/10 00:02:19;;;;;;;12.68;4.25;;;;;;;;;;4973839;28;20061;-79
2023/10/10 00:04:49;;;;;;;8.75;3.92;;;;;;;;;;4970896;28;20065;-79
2023/10/10 00:07:16;;;;;;;10.10;4.35;;;;;;;;;;4964763;28;20487;-79
2023/10/10 00:09:44;;;;;;;8.23;4.32;;;;;;;;;;4979663;28;20924;-79
2023/10/10 00:12:25;;;;;;;8.73;4.20;;;;;;;;;;4967916;28;20066;-79
2023/10/10 00:14:53;;;;;;;9.05;4.75;;;;;;;;;;4973682;28;20401;-79
2023/10/10 00:17:20;;;;;;;6.85;3.80;;;;;;;;;;4976328;28;20058;-79
2023/10/10 00:19:54;;;;;;;9.88;4.35;;;;;;;;;;4976342;28;20051;-79
2023/10/10 00:22:30;;;;;;;7.18;4.47;;;;;;;;;;4987598;28;20046;-79
2023/10/10 00:24:59;;;;;;;10.95;4.50;;;;;;;;;;4974003;28;20086;-79
2023/10/10 00:27:25;;;;;;;11.70;4.70;;;;;;;;;;4969164;28;20054;-79
2023/10/10 00:29:53;;;;;;;11.65;4.88;;;;;;;;;;4967047;28;20057;-79
2023/10/10 00:32:22;;;;;;;9.25;5.10;;;;;;;;;;4980644;28;20054;-79
2023/10/10 00:34:50;;;;;;;9.18;4.88;;;;;;;;;;5003957;28;20142;-79
2023/10/10 00:37:21;;;;;;;6.75;4.50;;;;;;;;;;4986397;28;20055;-78
2023/10/10 00:39:52;;;;;;;8.90;5.07;;;;;;;;;;4983539;28;20042;-79
2023/10/10 00:42:36;;;;;;;10.70;5.47;;;;;;;;;;4975159;28;20047;-79
2023/10/10 00:45:04;;;;;;;15.40;5.65;;;;;;;;;;4972769;28;20694;-79
2023/10/10 00:47:31;;;;;;;16.38;6.30;;;;;;;;;;4980124;28;20414;-79
2023/10/10 00:49:59;;;;;;;8.50;5.28;;;;;;;;;;5009471;28;20471;-79
2023/10/10 00:52:26;;;;;;;11.00;6.10;;;;;;;;;;4982737;28;20446;-79
2023/10/10 00:54:52;;;;;;;8.55;5.25;;;;;;;;;;4969643;28;20058;-79
2023/10/10 00:57:19;;;;;;;9.40;5.72;;;;;;;;;;4975394;28;21899;-79
2023/10/10 00:59:47;;;;;;;11.82;5.75;;;;;;;;;;4965941;28;20602;-79
2023/10/10 01:02:16;;;;;;;12.45;5.60;;;;;;;;;;4974426;28;20055;-79
2023/10/10 01:04:55;;;;;;;15.48;5.78;;;;;;;;;;4971588;28;20403;-79
2023/10/10 01:07:21;;;;;;;10.38;5.18;;;;;;;;;;4962304;28;20058;-79
2023/10/10 01:10:32;;;;;;;9.43;6.10;;;;;;;;;;4979255;28;20106;-78
2023/10/10 01:12:42;;;;;;;14.68;6.57;;;;;;;;;;4963266;28;20050;-79
2023/10/10 01:15:35;;;;;;;11.60;5.57;;;;;;;;;;4966582;28;20141;-79
2023/10/10 01:17:56;;;;;;;8.52;5.63;;;;;;;;;;4972272;28;20383;-79
2023/10/10 01:20:36;;;;;;;10.73;6.80;;;;;;;;;;4973370;28;20115;-79
2023/10/10 01:23:03;;;;;;;10.80;6.18;;;;;;;;;;4991485;28;20101;-80
2023/10/10 01:28:23;;;;;;;9.02;6.10;;;;;;;;;;4980004;28;20390;-79
2023/10/10 01:33:22;;;;;;;11.75;6.10;;;;;;;;;;4986433;28;20080;-79
2023/10/10 01:36:03;;;;;;;10.20;5.53;;;;;;;;;;4963716;28;20050;-79
2023/10/10 01:38:56;;;;;;;13.00;6.25;;;;;;;;;;4964848;28;20084;-79
2023/10/10 01:41:24;;;;;;;9.48;5.90;;;;;;;;;;4980041;28;20442;-79
2023/10/10 01:43:53;;;;;;;11.15;6.07;;;;;;;;;;4970215;28;20051;-79
2023/10/10 01:46:29;;;;;;;12.68;7.07;;;;;;;;;;4978925;28;20061;-79
2023/10/10 01:48:55;;;;;;;11.52;6.95;;;;;;;;;;4982111;28;20066;-80
2023/10/10 01:51:24;;;;;;;12.32;6.97;;;;;;;;;;4969206;28;20487;-79
2023/10/10 01:53:52;;;;;;;10.90;6.45;;;;;;;;;;4975434;28;20058;-79
2023/10/10 01:56:18;;;;;;;13.23;7.32;;;;;;;;;;4973312;28;20070;-79
2023/10/10 01:58:44;;;;;;;15.38;7.22;;;;;;;;;;4975582;28;20046;-79
2023/10/10 02:01:19;;;;;;;16.92;7.68;;;;;;;;;;4983960;28;20050;-79
2023/10/10 02:03:46;;;;;;;15.18;7.82;;;;;;;;;;4988976;28;20052;-79
2023/10/10 02:06:25;;;;;;;14.20;8.00;;;;;;;;;;4976571;28;20097;-79
2023/10/10 02:08:52;;;;;;;14.32;8.20;;;;;;;;;;4976363;28;20055;-79
2023/10/10 02:11:21;;;;;;;15.00;8.20;;;;;;;;;;4973603;28;20085;-79
2023/10/10 02:13:48;;;;;;;15.57;7.95;;;;;;;;;;4976761;28;20030;-79
2023/10/10 02:16:18;;;;;;;15.43;8.63;;;;;;;;;;4972103;28;20106;-79
2023/10/10 02:18:45;;;;;;;15.68;9.43;;;;;;;;;;4966013;28;20131;-79
2023/10/10 02:21:31;;;;;;;18.05;9.63;;;;;;;;;;4970387;28;20055;-79
2023/10/10 02:24:09;;;;;;;19.77;9.90;;;;;;;;;;5000204;28;20454;-79
2023/10/10 02:26:36;;;;;;;15.70;9.68;;;;;;;;;;4974006;28;20054;-79
2023/10/10 02:29:32;;;;;;;14.73;9.77;;;;;;;;;;4980180;28;20046;-79
2023/10/10 02:32:18;;;;;;;18.70;9.98;;;;;;;;;;4976904;28;20062;-79
2023/10/10 02:34:48;;;;;;;15.77;8.90;;;;;;;;;;5012110;28;20486;-79
2023/10/10 02:40:12;;;;;;;14.95;10.93;;;;;;;;;;4972765;28;20058;-79
2023/10/10 02:42:38;;;;;;;16.45;10.07;;;;;;;;;;4974855;28;20046;-79
2023/10/10 02:45:06;;;;;;;17.08;9.57;;;;;;;;;;4969638;28;20059;-79
2023/10/10 02:47:32;;;;;;;13.50;8.68;;;;;;;;;;4971636;28;20126;-79
2023/10/10 02:50:12;;;;;;;15.57;9.70;;;;;;;;;;4974234;28;20054;-79
2023/10/10 02:52:39;;;;;;;17.33;9.77;;;;;;;;;;4978444;28;20054;-79
2023/10/10 02:55:33;;;;;;;15.88;9.55;;;;;;;;;;5012544;28;20062;-79
2023/10/10 02:57:59;;;;;;;18.13;10.07;;;;;;;;;;4972889;28;20047;-79
2023/10/10 03:02:54;;;;;;;21.63;11.07;;;;;;;;;;4964506;28;20058;-79
2023/10/10 03:05:38;;;;;;;19.65;10.20;;;;;;;;;;4970606;28;20046;-79
2023/10/10 03:08:12;;;;;;;14.73;10.18;;;;;;;;;;4975351;28;20097;-79
2023/10/10 03:10:41;;;;;;;16.55;10.95;;;;;;;;;;4973388;28;20542;-79
2023/10/10 03:16:59;;;;;;;16.70;10.30;;;;;;;;;;4961450;28;20104;-79
2023/10/10 03:24:29;;;;;;;18.58;12.55;;;;;;;;;;4985143;28;20046;-79
2023/10/10 03:27:12;;;;;;;17.27;12.27;;;;;;;;;;4963312;28;20050;-79
2023/10/10 03:29:49;;;;;;;20.95;13.70;;;;;;;;;;4965496;28;20049;-79
2023/10/10 03:32:32;;;;;;;23.35;13.93;;;;;;;;;;4981049;28;20061;-79
2023/10/10 03:35:20;;;;;;;17.48;13.23;;;;;;;;;;4965285;28;20830;-79
2023/10/10 03:37:54;;;;;;;20.52;14.10;;;;;;;;;;4978854;28;20035;-79
2023/10/10 05:24:51;;;;;;;45.58;27.92;;;;;;;;;;4984692;28;20073;-78
2023/10/10 05:27:29;;;;;;;45.67;27.55;;;;;;;;;;4975351;28;20049;-79
2023/10/10 05:29:55;;;;;;;45.55;27.35;;;;;;;;;;4971856;28;20046;-79
2023/10/10 05:32:22;;;;;;;54.83;29.98;;;;;;;;;;4979799;28;20042;-79
2023/10/10 05:34:52;;;;;;;42.85;28.27;;;;;;;;;;4970311;28;20054;-79
2023/10/10 05:37:18;;;;;;;45.15;28.42;;;;;;;;;;4976664;28;20130;-79
2023/10/10 05:39:46;;;;;;;47.10;28.30;;;;;;;;;;4979456;28;20038;-79
2023/10/10 05:42:20;;;;;;;43.60;28.73;;;;;;;;;;4978242;28;20103;-79
2023/10/10 05:44:49;;;;;;;45.00;28.83;;;;;;;;;;4973420;28;20071;-77
2023/10/10 05:47:16;;;;;;;46.78;30.30;;;;;;;;;;4986845;28;20062;-79
2023/10/10 05:49:42;;;;;;;51.17;30.90;;;;;;;;;;4991777;28;20038;-79
2023/10/10 05:52:08;;;;;;;54.80;29.45;;;;;;;;;;4975144;28;20051;-79
2023/10/10 05:54:35;;;;;;;58.10;31.13;;;;;;;;;;4970828;28;20085;-78
2023/10/10 05:57:02;;;;;;;51.50;30.58;;;;;;;;;;4969445;28;20051;-79
2023/10/10 05:59:28;;;;;;;53.72;31.10;;;;;;;;;;4954425;28;20129;-79
2023/10/10 06:01:55;;;;;;;57.45;32.55;;;;;;;;;;4970201;28;20047;-79
2023/10/10 06:04:21;;;;;;;62.00;32.63;;;;;;;;;;4970683;28;20047;-79
2023/10/10 06:06:47;;;;;;;54.42;32.72;;;;;;;;;;4975380;28;20049;-78
2023/10/10 06:09:19;;;;;;;58.83;34.47;;;;;;;;;;4982381;28;20117;-79
2023/10/10 06:11:46;;;;;;;61.50;34.40;;;;;;;;;;4975370;28;20089;-78
2023/10/10 06:14:12;;;;;;;62.90;35.72;;;;;;;;;;4984154;28;20038;-79
2023/10/10 06:16:38;;;;;;;60.00;34.45;;;;;;;;;;4981594;28;20577;-79
2023/10/10 06:19:04;;;;;;;59.92;34.50;;;;;;;;;;4989690;28;20058;-79
2023/10/10 06:21:30;;;;;;;67.38;35.85;;;;;;;;;;4972159;28;20053;-79
2023/10/10 06:23:56;;;;;;;58.72;35.60;;;;;;;;;;4977493;28;20500;-79
2023/10/10 06:26:28;;;;;;;73.78;37.92;;;;;;;;;;4983075;28;20168;-79
2023/10/10 06:28:57;;;;;;;66.53;37.05;;;;;;;;;;4972427;28;20046;-79
2023/10/10 06:31:33;;;;;;;66.57;35.40;;;;;;;;;;4972371;28;20387;-79
2023/10/10 06:34:19;;;;;;;63.92;38.53;;;;;;;;;;4973618;28;20046;-79
2023/10/10 06:36:48;;;;;;;67.60;37.28;;;;;;;;;;4972517;28;20495;-78
2023/10/10 06:41:42;;;;;;;73.45;39.88;;;;;;;;;;4988132;28;20046;-79
2023/10/10 06:44:15;;;;;;;69.50;38.90;;;;;;;;;;4967563;28;20505;-79
2023/10/10 06:46:41;;;;;;;77.60;40.30;;;;;;;;;;4966224;28;20045;-79
2023/10/10 06:49:11;;;;;;;79.20;41.72;;;;;;;;;;4967300;28;20506;-79
2023/10/10 06:51:40;;;;;;;85.88;43.10;;;;;;;;;;4968623;28;20136;-79
2023/10/10 06:54:53;;;;;;;85.88;42.72;;;;;;;;;;4968878;28;20042;-79
2023/10/10 06:57:05;;;;;;;83.88;41.85;;;;;;;;;;4971639;28;20065;-80
2023/10/10 06:59:32;;;;;;;89.00;44.65;;;;;;;;;;4970315;28;20471;-79
2023/10/10 07:02:13;;;;;;;86.10;45.22;;;;;;;;;;4974756;28;20049;-79
2023/10/10 07:04:40;;;;;;;94.07;44.88;;;;;;;;;;4973449;28;20046;-79
2023/10/10 07:07:08;;;;;;;85.55;45.03;;;;;;;;;;4970504;28;20042;-79
2023/10/10 07:09:37;;;;;;;86.38;46.00;;;;;;;;;;4967430;28;20108;-79
2023/10/10 07:12:21;;;;;;;86.45;45.75;;;;;;;;;;4968952;28;20391;-79
2023/10/10 07:14:47;;;;;;;87.22;47.35;;;;;;;;;;4969774;28;20046;-79
2023/10/10 07:17:21;;;;;;;85.88;46.88;;;;;;;;;;4969954;28;20058;-79
2023/10/10 07:22:34;;;;;;;81.28;46.00;;;;;;;;;;4971862;28;20546;-79
2023/10/10 07:25:07;;;;;;;82.80;46.40;;;;;;;;;;4968558;28;20050;-79
2023/10/10 07:27:43;;;;;;;81.00;43.85;;;;;;;;;;4990027;28;20042;-79
2023/10/10 07:30:19;;;;;;;83.28;45.90;;;;;;;;;;4969521;28;20059;-79
2023/10/10 07:32:48;;;;;;;80.68;45.40;;;;;;;;;;4971511;28;20081;-79
2023/10/10 07:35:21;;;;;;;80.60;44.25;;;;;;;;;;4967655;28;20468;-79
2023/10/10 07:37:47;;;;;;;77.10;44.38;;;;;;;;;;4968567;28;20139;-79
2023/10/10 07:42:59;;;;;;;79.88;46.13;;;;;;;;;;4970981;28;20047;-79
2023/10/10 07:45:43;;;;;;;72.97;44.55;;;;;;;;;;4965237;28;20407;-79
2023/10/10 07:50:35;;;;;;;68.95;42.75;;;;;;;;;;4970007;28;20054;-79
2023/10/10 07:53:05;;;;;;;70.25;44.42;;;;;;;;;;4972373;28;20051;-79
2023/10/10 07:55:52;;;;;;;64.85;41.72;;;;;;;;;;4968595;28;20065;-79
2023/10/10 07:58:20;;;;;;;71.80;43.45;;;;;;;;;;4966260;28;20058;-79
2023/10/10 08:00:46;;;;;;;63.95;40.65;;;;;;;;;;4970590;28;20069;-79
2023/10/10 08:03:19;;;;;;;68.53;42.17;;;;;;;;;;4966627;28;20062;-79
2023/10/10 08:05:48;;;;;;;64.57;40.90;;;;;;;;;;4961226;28;20054;-79
2023/10/10 08:08:16;;;;;;;65.28;41.28;;;;;;;;;;4968661;28;20559;-79
2023/10/10 08:10:45;;;;;;;65.50;41.90;;;;;;;;;;4969519;28;20051;-79
2023/10/10 08:13:11;;;;;;;61.40;40.75;;;;;;;;;;4968810;28;20070;-79
2023/10/10 08:15:50;;;;;;;61.90;40.58;;;;;;;;;;4968654;28;20483;-79
2023/10/10 08:18:41;;;;;;;57.72;40.95;;;;;;;;;;4966869;28;20491;-79
2023/10/10 08:23:31;;;;;;;60.65;41.55;;;;;;;;;;4973727;28;20517;-79
2023/10/10 08:25:57;;;;;;;62.42;40.78;;;;;;;;;;4973640;28;20035;-79
2023/10/10 08:28:24;;;;;;;53.88;40.35;;;;;;;;;;4975555;28;20043;-79
2023/10/10 08:30:51;;;;;;;55.50;39.22;;;;;;;;;;4969931;28;20038;-79
2023/10/10 08:33:17;;;;;;;60.75;40.67;;;;;;;;;;4972045;28;20043;-79
2023/10/10 08:35:43;;;;;;;60.88;41.70;;;;;;;;;;4973395;28;20051;-79
2023/10/10 08:38:19;;;;;;;59.35;40.40;;;;;;;;;;4970116;28;20054;-79
2023/10/10 08:40:56;;;;;;;57.42;38.53;;;;;;;;;;4975778;28;20053;-78
2023/10/10 08:43:26;;;;;;;52.35;37.25;;;;;;;;;;4978976;28;20568;-79
2023/10/10 08:45:54;;;;;;;53.83;37.42;;;;;;;;;;4973894;28;20043;-79
2023/10/10 08:48:26;;;;;;;55.80;38.60;;;;;;;;;;4968405;28;20090;-79
2023/10/10 08:50:55;;;;;;;53.70;37.33;;;;;;;;;;5005070;28;20047;-79
2023/10/10 08:53:24;;;;;;;52.15;37.40;;;;;;;;;;4971262;28;20474;-79
2023/10/10 08:55:56;;;;;;;51.53;37.53;;;;;;;;;;4972470;28;20458;-79
2023/10/10 08:58:22;;;;;;;52.88;38.83;;;;;;;;;;4969905;28;20125;-79
2023/10/10 09:00:49;;;;;;;51.45;36.47;;;;;;;;;;4967271;28;20129;-79
2023/10/10 09:03:15;;;;;;;52.22;36.92;;;;;;;;;;4970965;28;20101;-79
2023/10/10 09:05:41;;;;;;;55.20;37.42;;;;;;;;;;4972735;28;20045;-78
2023/10/10 09:08:16;;;;;;;54.70;38.00;;;;;;;;;;4976552;28;20061;-79
2023/10/10 09:10:53;;;;;;;50.10;36.13;;;;;;;;;;4969279;28;20053;-79
2023/10/10 09:13:19;;;;;;;49.50;36.60;;;;;;;;;;4969605;28;20682;-79
2023/10/10 09:15:55;;;;;;;48.85;35.72;;;;;;;;;;4971418;28;20039;-79
2023/10/10 09:18:25;;;;;;;53.10;35.58;;;;;;;;;;4974674;28;20054;-78
2023/10/10 09:20:53;;;;;;;48.55;34.75;;;;;;;;;;4970990;28;20047;-79
2023/10/10 09:23:23;;;;;;;49.50;35.30;;;;;;;;;;4972187;28;20106;-78
2023/10/10 09:26:12;;;;;;;52.47;36.72;;;;;;;;;;4977415;28;20069;-79
2023/10/10 09:28:49;;;;;;;47.58;34.72;;;;;;;;;;4969858;28;20434;-79
2023/10/10 09:31:26;;;;;;;47.22;34.47;;;;;;;;;;4965939;28;20062;-79
2023/10/10 09:33:55;;;;;;;45.58;34.90;;;;;;;;;;4975394;28;20057;-79
2023/10/10 09:36:26;;;;;;;53.85;34.33;;;;;;;;;;4975861;28;20403;-79
2023/10/10 09:38:57;;;;;;;49.63;36.33;;;;;;;;;;4970196;28;20035;-79
2023/10/10 09:41:37;;;;;;;50.47;35.50;;;;;;;;;;4971392;28;20418;-79
2023/10/10 09:57:40;;;;;;;;;;;;;;;;;;4976222;28;20068;-79
2023/10/10 10:00:10;;;;;;;45.90;33.75;;;;;;;;;;4968649;28;20390;-79
2023/10/10 10:02:43;;;;;;;41.53;32.78;;;;;;;;;;4970004;28;20051;-79
2023/10/10 10:05:16;;;;;;;51.30;32.17;;;;;;;;;;4969156;28;20514;-79
2023/10/10 10:08:05;;;;;;;46.17;33.60;;;;;;;;;;4970864;28;20053;-79
2023/10/10 10:10:35;;;;;;;48.47;35.88;;;;;;;;;;4969544;28;20043;-79
2023/10/10 10:13:13;;;;;;;52.08;33.97;;;;;;;;;;4971926;28;20066;-79
2023/10/10 10:15:51;;;;;;;45.35;33.80;;;;;;;;;;4969617;28;20109;-79
2023/10/10 10:18:29;;;;;;;45.25;32.40;;;;;;;;;;4969496;28;20035;-79
2023/10/10 10:23:45;;;;;;;45.88;31.67;;;;;;;;;;4971467;28;20046;-79
2023/10/10 10:26:11;;;;;;;44.38;31.50;;;;;;;;;;4966375;28;20051;-79
2023/10/10 10:28:37;;;;;;;45.40;30.90;;;;;;;;;;4971034;28;20035;-79
2023/10/10 10:31:08;;;;;;;46.60;31.75;;;;;;;;;;4969235;28;20055;-79
2023/10/10 10:33:45;;;;;;;48.22;32.90;;;;;;;;;;4969591;28;20058;-79
2023/10/10 10:36:14;;;;;;;47.67;32.65;;;;;;;;;;4999636;28;20455;-79
2023/10/10 10:39:17;;;;;;;44.55;32.30;;;;;;;;;;4969356;28;20043;-79
2023/10/10 10:41:41;;;;;;;53.58;34.38;;;;;;;;;;4969968;28;20556;-78
2023/10/10 10:44:09;;;;;;;46.92;33.50;;;;;;;;;;4970506;28;20054;-79
2023/10/10 10:46:39;;;;;;;44.10;33.67;;;;;;;;;;4971512;28;20062;-79
2023/10/10 10:49:14;;;;;;;45.30;32.13;;;;;;;;;;4980720;28;20050;-79
2023/10/10 10:51:42;;;;;;;46.45;33.38;;;;;;;;;;4970847;28;20050;-79
2023/10/10 10:54:09;;;;;;;51.38;34.03;;;;;;;;;;4968283;28;20145;-79
2023/10/10 10:59:12;;;;;;;44.83;33.25;;;;;;;;;;4964362;28;20483;-79
2023/10/10 11:01:51;;;;;;;47.33;32.60;;;;;;;;;;4967046;28;20432;-79
2023/10/10 11:07:07;;;;;;;46.13;33.30;;;;;;;;;;4969764;28;20050;-78
2023/10/10 11:09:36;;;;;;;48.85;33.42;;;;;;;;;;4970910;28;20042;-79
2023/10/10 11:12:03;;;;;;;54.90;33.80;;;;;;;;;;4971238;28;20046;-79
2023/10/10 11:14:30;;;;;;;50.30;32.28;;;;;;;;;;4980315;28;20133;-79
2023/10/10 11:16:57;;;;;;;44.33;30.92;;;;;;;;;;4977745;28;20491;-80
2023/10/10 11:21:54;;;;;;;40.50;28.25;;;;;;;;;;4985517;28;20470;-79
2023/10/10 11:24:24;;;;;;;42.35;28.45;;;;;;;;;;4988981;28;20101;-79
2023/10/10 11:27:07;;;;;;;52.17;30.00;;;;;;;;;;4971067;28;20049;-80
2023/10/10 11:30:00;;;;;;;44.53;27.83;;;;;;;;;;4967589;28;20055;-79
2023/10/10 11:32:36;;;;;;;42.85;28.02;;;;;;;;;;4967173;28;20130;-79
2023/10/10 11:37:59;;;;;;;44.83;27.58;;;;;;;;;;4971186;28;20058;-79
2023/10/10 11:43:03;;;;;;;44.72;28.17;;;;;;;;;;4979878;28;20054;-79
2023/10/10 11:45:30;;;;;;;39.30;28.17;;;;;;;;;;4976795;28;20047;-79
2023/10/10 11:48:10;;;;;;;46.05;28.15;;;;;;;;;;4977554;28;20406;-79
2023/10/10 11:50:43;;;;;;;43.15;26.70;;;;;;;;;;4982325;28;20863;-79
2023/10/10 11:53:27;;;;;;;45.58;25.75;;;;;;;;;;4991141;28;20050;-79
2023/10/10 11:55:54;;;;;;;43.83;27.70;;;;;;;;;;4989510;28;20042;-79
2023/10/10 11:58:21;;;;;;;44.83;26.33;;;;;;;;;;4972822;28;20486;-79
2023/10/10 12:00:59;;;;;;;42.80;25.13;;;;;;;;;;4971036;28;20047;-79
2023/10/10 12:03:41;;;;;;;34.30;24.20;;;;;;;;;;4972814;28;20051;-79
2023/10/10 12:06:14;;;;;;;41.85;23.05;;;;;;;;;;4967061;28;20066;-80
2023/10/10 12:08:44;;;;;;;35.60;22.70;;;;;;;;;;4967875;28;20487;-79
2023/10/10 12:11:19;;;;;;;35.80;22.33;;;;;;;;;;4958574;28;20094;-79
2023/10/10 12:13:45;;;;;;;36.72;22.67;;;;;;;;;;4970756;28;20083;-79
2023/10/10 12:16:11;;;;;;;36.20;22.40;;;;;;;;;;4978884;28;20133;-79
2023/10/10 12:18:44;;;;;;;35.80;21.75;;;;;;;;;;4969701;28;20134;-79
2023/10/10 12:21:10;;;;;;;;;;;;;;;;;;4978434;28;20070;-79
2023/10/10 12:23:44;;;;;;;;;;;;;;;;;;4986744;28;19925;-79
2023/10/10 12:26:23;;;;;;;35.90;20.58;;;;;;;;;;4971685;28;19922;-80
2023/10/10 12:28:52;;;;;;;37.65;19.10;;;;;;;;;;4975044;28;20077;-79
2023/10/10 12:31:18;;;;;;;31.08;19.10;;;;;;;;;;4986288;28;20046;-79
2023/10/10 12:33:53;;;;;;;33.47;19.83;;;;;;;;;;4970167;28;20125;-80
2023/10/10 12:36:28;;;;;;;33.90;19.38;;;;;;;;;;4975452;28;20125;-79
2023/10/10 12:38:55;;;;;;;34.38;19.35;;;;;;;;;;4971554;28;20043;-79
2023/10/10 12:41:21;;;;;;;32.95;17.70;;;;;;;;;;4971683;28;20410;-80
2023/10/10 12:43:48;;;;;;;26.70;16.42;;;;;;;;;;4969523;28;20047;-79
2023/10/10 12:46:17;;;;;;;27.90;16.27;;;;;;;;;;4983103;28;20049;-80
2023/10/10 12:48:46;;;;;;;25.67;15.82;;;;;;;;;;4968112;28;20059;-79
2023/10/10 12:51:13;;;;;;;22.90;15.52;;;;;;;;;;4969403;28;20503;-79
2023/10/10 12:53:39;;;;;;;28.00;15.40;;;;;;;;;;4972553;28;20039;-79
2023/10/10 12:56:16;;;;;;;27.08;15.60;;;;;;;;;;4981890;28;20161;-79
2023/10/10 12:59:03;;;;;;;28.30;14.52;;;;;;;;;;4970503;28;20051;-79
2023/10/10 13:01:32;;;;;;;26.10;14.60;;;;;;;;;;4984404;28;20069;-80
2023/10/10 13:03:59;;;;;;;26.95;15.52;;;;;;;;;;4971694;28;20051;-79
2023/10/10 13:06:27;;;;;;;26.55;15.77;;;;;;;;;;4985905;28;20054;-79
2023/10/10 13:11:20;;;;;;;27.75;16.02;;;;;;;;;;4985711;28;20073;-79
2023/10/10 13:13:48;;;;;;;30.73;15.48;;;;;;;;;;4989600;28;20043;-80
2023/10/10 13:19:06;;;;;;;22.15;14.13;;;;;;;;;;4967871;28;20059;-79
2023/10/10 13:21:36;;;;;;;25.65;15.48;;;;;;;;;;4975013;28;20042;-79
2023/10/10 13:24:13;;;;;;;26.40;15.65;;;;;;;;;;4986776;28;20406;-79
2023/10/10 13:26:40;;;;;;;30.75;18.55;;;;;;;;;;4992557;28;20050;-79
2023/10/10 13:29:06;;;;;;;29.63;19.65;;;;;;;;;;4988527;28;20054;-80
2023/10/10 13:31:32;;;;;;;28.95;18.65;;;;;;;;;;4993707;28;20509;-79
2023/10/10 13:33:59;;;;;;;34.00;19.10;;;;;;;;;;4978097;28;20050;-79
2023/10/10 13:36:25;;;;;;;29.70;17.58;;;;;;;;;;4980899;28;20461;-79
2023/10/10 13:38:57;;;;;;;27.88;17.67;;;;;;;;;;4974982;28;20054;-79
2023/10/10 13:41:24;;;;;;;27.75;17.20;;;;;;;;;;4975487;28;20043;-79
2023/10/10 13:43:53;;;;;;;26.65;16.90;;;;;;;;;;4988487;28;20046;-79
2023/10/10 13:46:20;;;;;;;24.60;16.42;;;;;;;;;;4991683;28;20101;-79
2023/10/10 13:48:46;;;;;;;27.85;15.95;;;;;;;;;;4987515;28;20058;-80
2023/10/10 13:51:15;;;;;;;24.17;16.13;;;;;;;;;;4979008;28;20137;-79
2023/10/10 13:53:43;;;;;;;22.70;15.68;;;;;;;;;;4982793;28;20485;-79
2023/10/10 13:56:10;;;;;;;29.45;16.25;;;;;;;;;;4975999;28;20106;-79
2023/10/10 13:58:46;;;;;;;24.67;15.40;;;;;;;;;;4993928;28;20054;-79
2023/10/10 14:03:45;;;;;;;24.88;14.98;;;;;;;;;;4988006;28;20039;-79
2023/10/10 14:06:19;;;;;;;25.27;14.95;;;;;;;;;;4977173;28;20443;-79
2023/10/10 14:08:49;;;;;;;22.77;14.60;;;;;;;;;;4979068;28;20049;-79
2023/10/10 14:11:22;;;;;;;22.85;16.00;;;;;;;;;;4987525;28;20087;-80
2023/10/10 14:13:51;;;;;;;;;;;;;;;;;;4974135;28;20047;-79
2023/10/10 14:16:17;;;;;;;26.00;17.05;;;;;;;;;;5002819;28;19922;-79
2023/10/10 14:18:47;;;;;;;24.45;15.98;;;;;;;;;;4961237;28;20054;-79
2023/10/10 14:21:14;;;;;;;24.35;15.80;;;;;;;;;;4960014;28;20082;-79
2023/10/10 14:23:40;;;;;;;22.92;16.13;;;;;;;;;;4974507;28;20503;-79
2023/10/10 14:26:13;;;;;;;27.95;17.40;;;;;;;;;;4981846;28;20051;-80
2023/10/10 14:28:50;;;;;;;28.35;18.05;;;;;;;;;;4990417;28;20058;-79
2023/10/10 14:31:17;;;;;;;25.33;18.50;;;;;;;;;;4989788;28;20053;-80
2023/10/10 14:33:44;;;;;;;31.58;18.98;;;;;;;;;;4992131;28;20097;-80
2023/10/10 14:36:13;;;;;;;29.05;18.98;;;;;;;;;;4971479;28;20130;-80
2023/10/10 14:38:45;;;;;;;29.25;19.73;;;;;;;;;;5005262;28;20047;-79
2023/10/10 14:41:18;;;;;;;27.63;19.05;;;;;;;;;;4972350;28;20065;-80
2023/10/10 14:43:47;;;;;;;25.58;19.15;;;;;;;;;;4972356;28;20047;-80
2023/10/10 14:46:14;;;;;;;28.35;19.23;;;;;;;;;;4972543;28;20166;-80
2023/10/10 14:48:41;;;;;;;26.08;19.20;;;;;;;;;;4984158;28;20085;-80
2023/10/10 14:51:07;;;;;;;33.38;18.75;;;;;;;;;;4982161;28;20059;-80
2023/10/10 14:53:34;;;;;;;27.02;18.33;;;;;;;;;;4970075;28;20043;-80
2023/10/10 14:56:05;;;;;;;29.08;19.08;;;;;;;;;;4966473;28;20057;-80
2023/10/10 14:58:31;;;;;;;27.30;18.83;;;;;;;;;;4967673;28;20353;-80
2023/10/10 15:00:57;;;;;;;22.95;17.85;;;;;;;;;;4974100;28;20053;-80
2023/10/10 15:03:25;;;;;;;29.02;18.20;;;;;;;;;;4972913;28;20046;-79
2023/10/10 15:05:51;;;;;;;29.45;18.92;;;;;;;;;;4968845;28;20383;-79
2023/10/10 15:08:19;;;;;;;32.67;19.67;;;;;;;;;;4972827;28;20043;-79
2023/10/10 15:10:45;;;;;;;27.67;18.33;;;;;;;;;;4970316;28;20402;-79
2023/10/10 15:13:15;;;;;;;30.40;19.42;;;;;;;;;;4952095;28;20602;-80
2023/10/10 15:15:45;;;;;;;29.52;18.75;;;;;;;;;;4952357;29;20452;-79
2023/10/10 15:18:11;;;;;;;31.10;19.20;;;;;;;;;;4991603;28;20474;-80
2023/10/10 15:20:38;;;;;;;27.88;19.15;;;;;;;;;;4966668;28;20133;-79
2023/10/10 15:23:04;;;;;;;29.67;20.27;;;;;;;;;;4952910;28;20055;-80
2023/10/10 15:25:30;;;;;;;32.25;21.25;;;;;;;;;;4952389;28;20059;-80
2023/10/10 15:27:57;;;;;;;28.65;20.15;;;;;;;;;;4953031;28;20045;-79
2023/10/10 15:30:23;;;;;;;28.42;19.65;;;;;;;;;;4974051;28;20475;-79
2023/10/10 15:32:56;;;;;;;31.13;18.67;;;;;;;;;;4979008;28;20062;-80
2023/10/10 15:35:23;;;;;;;27.83;18.63;;;;;;;;;;4977912;28;20505;-79
2023/10/10 15:37:52;;;;;;;26.35;18.88;;;;;;;;;;4979110;28;20051;-79
2023/10/10 15:40:21;;;;;;;25.23;18.05;;;;;;;;;;4953918;28;20566;-79
2023/10/10 15:42:53;;;;;;;24.92;17.65;;;;;;;;;;4971237;28;20046;-79
2023/10/10 15:45:22;;;;;;;29.37;18.47;;;;;;;;;;4970639;28;20058;-79
2023/10/10 15:47:54;;;;;;;22.58;16.98;;;;;;;;;;4976084;28;20054;-80
2023/10/10 15:50:21;;;;;;;24.20;16.67;;;;;;;;;;4970832;28;20125;-80
2023/10/10 15:52:51;;;;;;;27.75;16.70;;;;;;;;;;4974049;28;20078;-80
2023/10/10 15:55:23;;;;;;;24.00;15.77;;;;;;;;;;4986704;28;20133;-80
2023/10/10 15:57:53;;;;;;;24.42;15.60;;;;;;;;;;4975922;28;20073;-80
2023/10/10 16:00:32;;;;;;;25.50;15.70;;;;;;;;;;4986499;28;20038;-80
2023/10/10 16:03:07;;;;;;;24.55;14.30;;;;;;;;;;4991657;28;20052;-79
2023/10/10 16:05:42;;;;;;;20.52;14.90;;;;;;;;;;4978134;28;20051;-78
2023/10/10 16:08:08;;;;;;;21.67;14.40;;;;;;;;;;4979044;28;20050;-79
2023/10/10 16:10:34;;;;;;;20.63;13.52;;;;;;;;;;4973473;28;20051;-79
2023/10/10 16:13:01;;;;;;;21.80;12.70;;;;;;;;;;4984805;28;20062;-79
2023/10/10 16:15:27;;;;;;;22.35;12.98;;;;;;;;;;4977374;28;20062;-80
2023/10/10 16:17:54;;;;;;;18.50;13.05;;;;;;;;;;4981527;28;20398;-80
2023/10/10 16:20:23;;;;;;;19.27;11.40;;;;;;;;;;4987850;28;20050;-80
2023/10/10 16:22:50;;;;;;;17.35;12.35;;;;;;;;;;4980726;28;20070;-80
2023/10/10 16:25:16;;;;;;;19.17;13.27;;;;;;;;;;4973612;28;20129;-79
2023/10/10 16:27:42;;;;;;;31.90;20.73;;;;;;;;;;5016066;28;20146;-80
2023/10/10 16:30:08;;;;;;;21.55;13.32;;;;;;;;;;4972559;28;20046;-80
2023/10/10 16:32:37;;;;;;;17.55;12.13;;;;;;;;;;4967703;28;20052;-79
2023/10/10 16:35:05;;;;;;;19.15;11.65;;;;;;;;;;4970880;28;20054;-79
2023/10/10 16:37:36;;;;;;;16.92;11.40;;;;;;;;;;4960728;28;21585;-79
2023/10/10 16:40:03;;;;;;;18.33;11.27;;;;;;;;;;4954359;28;20051;-78
2023/10/10 16:42:29;;;;;;;14.57;11.52;;;;;;;;;;4964464;28;20057;-78
2023/10/10 16:44:55;;;;;;;19.58;12.20;;;;;;;;;;4974154;28;20050;-78
2023/10/10 16:47:21;;;;;;;15.48;11.70;;;;;;;;;;4972200;28;20442;-79
2023/10/10 16:49:51;;;;;;;22.35;14.07;;;;;;;;;;4971351;28;20061;-79
2023/10/10 16:52:17;;;;;;;19.92;13.95;;;;;;;;;;4967732;28;20169;-78
2023/10/10 16:54:50;;;;;;;22.42;14.50;;;;;;;;;;4967837;28;20415;-78
2023/10/10 16:57:16;;;;;;;22.80;15.57;;;;;;;;;;4970172;28;20054;-78
2023/10/10 16:59:45;;;;;;;27.70;15.98;;;;;;;;;;4971515;28;20442;-79
2023/10/10 17:02:11;;;;;;;34.70;25.10;;;;;;;;;;4968352;28;20085;-79
2023/10/10 17:04:37;;;;;;;27.52;20.33;;;;;;;;;;4970357;28;20109;-78
2023/10/10 17:07:04;;;;;;;23.92;17.45;;;;;;;;;;4969328;28;20482;-78
2023/10/10 17:09:35;;;;;;;26.20;17.90;;;;;;;;;;4967514;28;20038;-78
2023/10/10 17:12:04;;;;;;;26.30;17.23;;;;;;;;;;4968453;28;20054;-78
2023/10/10 17:14:30;;;;;;;21.70;16.17;;;;;;;;;;4967302;28;20180;-80
2023/10/10 17:16:56;;;;;;;21.38;16.50;;;;;;;;;;4968163;28;20047;-78
2023/10/10 17:19:22;;;;;;;20.65;14.20;;;;;;;;;;4968823;28;20051;-79
2023/10/10 17:21:48;;;;;;;18.52;12.15;;;;;;;;;;4976226;28;20047;-79
2023/10/10 17:24:15;;;;;;;17.42;11.80;;;;;;;;;;4973116;28;20199;-79
2023/10/10 17:26:43;;;;;;;15.18;10.10;;;;;;;;;;4962795;28;20055;-79
2023/10/10 17:29:12;;;;;;;15.73;8.93;;;;;;;;;;4974514;28;20065;-78
2023/10/10 17:31:39;;;;;;;18.10;8.57;;;;;;;;;;4995267;28;20589;-78
2023/10/10 17:34:06;;;;;;;13.40;9.13;;;;;;;;;;4963125;28;20042;-79
2023/10/10 17:36:32;;;;;;;14.20;9.73;;;;;;;;;;4970623;28;20074;-80